createdAt,value
2019-01-26T00:00:53.572Z,13.63
2019-01-26T00:03:23.995Z,14.10
2019-01-26T00:05:53.268Z,15.17
2019-01-26T00:08:22.522Z,13.83
2019-01-26T00:10:51.811Z,15.73
2019-01-26T00:13:21.065Z,13.73
2019-01-26T00:15:50.353Z,13.73
2019-01-26T00:18:19.545Z,13.53
2019-01-26T00:20:48.828Z,13.40
2019-01-26T00:23:18.086Z,13.23
2019-01-26T00:25:47.362Z,13.07
2019-01-26T00:28:16.617Z,13.90
2019-01-26T00:30:45.894Z,13.20
2019-01-26T00:33:15.149Z,13.53
2019-01-26T00:35:44.419Z,11.87
2019-01-26T00:38:13.668Z,13.63
2019-01-26T00:40:42.946Z,12.90
2019-01-26T00:43:12.258Z,13.13
2019-01-26T00:45:41.449Z,13.60
2019-01-26T00:48:10.706Z,13.60
2019-01-26T00:50:39.986Z,13.70
2019-01-26T00:53:09.237Z,14.13
2019-01-26T00:55:38.502Z,13.50
2019-01-26T00:58:07.745Z,12.23
2019-01-26T01:00:37.019Z,13.43
2019-01-26T01:03:06.502Z,12.37
2019-01-26T01:05:35.774Z,12.87
2019-01-26T01:08:05.027Z,11.93
2019-01-26T01:10:34.301Z,12.60
2019-01-26T01:13:03.551Z,15.07
2019-01-26T01:15:32.847Z,13.70
2019-01-26T01:18:02.099Z,13.27
2019-01-26T01:20:32.413Z,12.73
2019-01-26T01:23:01.706Z,12.57
2019-01-26T01:25:30.963Z,13.30
2019-01-26T01:28:00.243Z,12.63
2019-01-26T01:30:29.485Z,12.87
2019-01-26T01:32:58.682Z,12.00
2019-01-26T01:35:27.853Z,12.17
2019-01-26T01:37:57.059Z,12.43
2019-01-26T01:40:26.306Z,12.93
2019-01-26T01:42:55.510Z,12.90
2019-01-26T01:45:24.762Z,12.57
2019-01-26T01:47:54.030Z,13.57
2019-01-26T01:50:23.279Z,12.73
2019-01-26T01:52:52.554Z,10.63
2019-01-26T01:55:21.805Z,13.47
2019-01-26T01:57:51.008Z,13.47
2019-01-26T02:00:24.846Z,12.07
2019-01-26T02:02:54.132Z,13.10
2019-01-26T02:05:23.384Z,10.90
2019-01-26T02:07:52.663Z,11.60
2019-01-26T02:10:23.054Z,11.83
2019-01-26T02:12:52.321Z,10.80
2019-01-26T02:15:21.499Z,11.80
2019-01-26T02:17:50.774Z,12.40
2019-01-26T02:20:21.562Z,12.53
2019-01-26T02:22:50.832Z,12.07
2019-01-26T02:25:20.929Z,11.70
2019-01-26T02:27:50.197Z,11.70
2019-01-26T02:30:21.501Z,11.57
2019-01-26T02:32:50.761Z,11.57
2019-01-26T02:35:20.078Z,11.50
2019-01-26T02:37:49.278Z,10.23
2019-01-26T02:40:18.529Z,10.40
2019-01-26T02:42:47.801Z,11.30
2019-01-26T02:45:17.056Z,10.67
2019-01-26T02:47:47.397Z,11.40
2019-01-26T02:50:17.718Z,10.87
2019-01-26T02:52:46.993Z,11.50
2019-01-26T02:55:16.247Z,9.87
2019-01-26T02:57:45.519Z,10.53
2019-01-26T03:00:20.045Z,10.60
2019-01-26T03:02:49.246Z,10.67
2019-01-26T03:05:18.491Z,9.63
2019-01-26T03:07:47.839Z,10.37
2019-01-26T03:10:19.694Z,10.17
2019-01-26T03:12:48.976Z,10.70
2019-01-26T03:15:20.451Z,9.93
2019-01-26T03:17:49.728Z,9.40
2019-01-26T03:20:19.041Z,9.60
2019-01-26T03:22:48.332Z,10.77
2019-01-26T03:25:17.641Z,10.43
2019-01-26T03:27:46.912Z,11.00
2019-01-26T03:30:18.660Z,11.63
2019-01-26T03:32:47.958Z,12.10
2019-01-26T03:35:17.176Z,11.40
2019-01-26T03:37:46.493Z,11.27
2019-01-26T03:40:18.140Z,12.00
2019-01-26T03:42:47.498Z,12.00
2019-01-26T03:45:17.145Z,13.13
2019-01-26T03:47:46.566Z,12.47
2019-01-26T03:50:16.131Z,11.30
2019-01-26T03:52:45.386Z,11.03
2019-01-26T03:55:20.293Z,11.43
2019-01-26T03:57:49.811Z,11.70
2019-01-26T04:00:21.896Z,11.40
2019-01-26T04:02:51.132Z,10.63
2019-01-26T04:05:20.400Z,10.67
2019-01-26T04:07:49.657Z,10.57
2019-01-26T04:10:18.942Z,10.70
2019-01-26T04:12:48.190Z,11.67
2019-01-26T04:15:19.134Z,10.70
2019-01-26T04:17:48.449Z,12.23
2019-01-26T04:20:19.583Z,10.27
2019-01-26T04:22:48.830Z,11.03
2019-01-26T04:25:18.101Z,10.87
2019-01-26T04:27:47.307Z,10.93
2019-01-26T04:30:18.494Z,10.37
2019-01-26T04:32:47.743Z,11.03
2019-01-26T04:35:17.081Z,10.77
2019-01-26T04:37:46.329Z,12.57
2019-01-26T04:40:17.375Z,11.80
2019-01-26T04:42:46.627Z,11.57
2019-01-26T04:45:18.242Z,12.23
2019-01-26T04:47:47.495Z,11.87
2019-01-26T04:50:18.217Z,12.43
2019-01-26T04:52:47.462Z,12.37
2019-01-26T04:55:18.467Z,13.57
2019-01-26T04:57:47.724Z,11.93
2019-01-26T05:00:22.030Z,13.10
2019-01-26T05:02:51.282Z,13.63
2019-01-26T05:05:20.557Z,14.47
2019-01-26T05:07:49.817Z,14.13
2019-01-26T05:10:20.618Z,13.83
2019-01-26T05:12:50.301Z,14.03
2019-01-26T05:15:19.844Z,14.47
2019-01-26T05:17:49.096Z,13.33
2019-01-26T05:20:20.613Z,14.43
2019-01-26T05:22:49.866Z,17.40
2019-01-26T05:25:19.136Z,16.37
2019-01-26T05:27:48.387Z,16.80
2019-01-26T05:30:25.923Z,16.23
2019-01-26T05:32:55.167Z,15.97
2019-01-26T05:35:24.440Z,14.93
2019-01-26T05:37:53.685Z,15.27
2019-01-26T05:40:22.962Z,15.13
2019-01-26T05:42:52.211Z,13.50
2019-01-26T05:45:22.218Z,12.73
2019-01-26T05:47:51.467Z,14.83
2019-01-26T05:50:22.778Z,13.23
2019-01-26T05:52:53.072Z,14.37
2019-01-26T05:55:22.343Z,11.27
2019-01-26T05:57:51.589Z,12.63
2019-01-26T06:00:25.129Z,12.13
2019-01-26T06:02:54.391Z,12.83
2019-01-26T06:05:23.704Z,12.40
2019-01-26T06:07:52.955Z,12.40
2019-01-26T06:10:22.224Z,11.00
2019-01-26T06:12:51.474Z,12.60
2019-01-26T06:15:20.696Z,10.90
2019-01-26T06:17:54.958Z,12.17
2019-01-26T06:20:20.920Z,13.27
2019-01-26T06:22:50.094Z,11.57
2019-01-26T06:25:20.418Z,12.17
2019-01-26T06:27:49.691Z,11.73
2019-01-26T06:30:23.432Z,12.07
2019-01-26T06:32:52.713Z,11.80
2019-01-26T06:35:21.972Z,11.70
2019-01-26T06:37:51.242Z,11.57
2019-01-26T06:40:20.768Z,11.03
2019-01-26T06:42:50.030Z,11.47
2019-01-26T06:45:20.442Z,11.37
2019-01-26T06:47:49.710Z,11.53
2019-01-26T06:50:22.341Z,11.80
2019-01-26T06:52:51.535Z,12.07
2019-01-26T06:55:21.854Z,11.77
2019-01-26T06:57:51.123Z,9.73
2019-01-26T07:00:23.683Z,10.90
2019-01-26T07:02:52.945Z,9.10
2019-01-26T07:05:26.517Z,10.57
2019-01-26T07:07:55.795Z,10.87
2019-01-26T07:10:25.043Z,10.67
2019-01-26T07:12:54.308Z,10.60
2019-01-26T07:15:23.477Z,10.97
2019-01-26T07:17:52.750Z,12.10
2019-01-26T07:20:21.927Z,9.70
2019-01-26T07:22:51.206Z,10.03
2019-01-26T07:25:20.454Z,10.30
2019-01-26T07:27:49.726Z,9.40
2019-01-26T07:30:25.825Z,11.03
2019-01-26T07:32:55.107Z,10.93
2019-01-26T07:35:24.357Z,11.70
2019-01-26T07:37:53.646Z,10.30
2019-01-26T07:40:23.734Z,10.80
2019-01-26T07:42:52.926Z,9.37
2019-01-26T07:45:22.172Z,11.50
2019-01-26T07:47:51.448Z,11.47
2019-01-26T07:50:25.771Z,11.23
2019-01-26T07:52:55.031Z,9.60
2019-01-26T07:55:24.278Z,10.07
2019-01-26T07:57:53.473Z,9.63
2019-01-26T08:00:27.930Z,9.87
2019-01-26T08:02:57.197Z,8.57
2019-01-26T08:05:26.923Z,10.83
2019-01-26T08:07:56.189Z,9.73
2019-01-26T08:10:26.303Z,8.70
2019-01-26T08:12:55.571Z,9.83
2019-01-26T08:15:30.282Z,9.60
2019-01-26T08:17:59.554Z,8.77
2019-01-26T08:20:28.734Z,8.87
2019-01-26T08:23:10.646Z,9.17
2019-01-26T08:25:39.905Z,10.20
2019-01-26T08:28:09.165Z,8.23
2019-01-26T08:30:38.408Z,9.80
2019-01-26T08:33:07.657Z,8.40
2019-01-26T08:35:36.927Z,9.93
2019-01-26T08:38:06.177Z,9.27
2019-01-26T08:40:35.502Z,8.87
2019-01-26T08:43:04.747Z,9.43
2019-01-26T08:45:34.019Z,8.83
2019-01-26T08:48:03.264Z,8.70
2019-01-26T08:50:32.531Z,8.77
2019-01-26T08:53:01.774Z,9.57
2019-01-26T08:55:31.042Z,8.17
2019-01-26T08:58:00.295Z,10.07
2019-01-26T09:00:29.563Z,9.63
2019-01-26T09:03:00.449Z,9.10
2019-01-26T09:05:47.944Z,8.63
2019-01-26T09:08:17.254Z,8.33
2019-01-26T09:10:46.495Z,8.53
2019-01-26T09:13:15.742Z,8.80
2019-01-26T09:15:45.029Z,8.33
2019-01-26T09:18:14.202Z,8.67
2019-01-26T09:20:43.485Z,8.63
2019-01-26T09:23:12.736Z,8.93
2019-01-26T09:25:41.997Z,8.60
2019-01-26T09:28:11.538Z,8.33
2019-01-26T09:30:40.822Z,8.10
2019-01-26T09:33:10.066Z,7.07
2019-01-26T09:35:39.355Z,8.83
2019-01-26T09:38:09.563Z,8.00
2019-01-26T09:40:38.851Z,7.77
2019-01-26T09:43:08.094Z,8.10
2019-01-26T09:45:37.306Z,7.80
2019-01-26T09:48:06.559Z,7.53
2019-01-26T09:50:35.848Z,7.47
2019-01-26T09:53:05.134Z,7.60
2019-01-26T09:55:34.357Z,7.70
2019-01-26T09:58:03.826Z,7.20
2019-01-26T10:00:33.052Z,7.63
2019-01-26T10:03:02.307Z,6.77
2019-01-26T10:05:31.577Z,7.07
2019-01-26T10:08:00.827Z,7.33
2019-01-26T10:10:30.121Z,6.10
2019-01-26T10:12:59.367Z,7.27
2019-01-26T10:15:30.566Z,6.73
2019-01-26T10:17:59.821Z,7.40
2019-01-26T10:20:36.223Z,7.03
2019-01-26T10:23:05.476Z,6.33
2019-01-26T10:25:34.776Z,7.20
2019-01-26T10:28:04.894Z,7.10
2019-01-26T10:30:42.430Z,7.63
2019-01-26T10:33:11.676Z,7.93
2019-01-26T10:35:42.586Z,7.70
2019-01-26T10:38:11.836Z,7.33
2019-01-26T10:40:45.686Z,8.90
2019-01-26T10:43:16.505Z,8.97
2019-01-26T10:45:45.773Z,9.67
2019-01-26T10:48:15.009Z,8.90
2019-01-26T10:50:44.279Z,9.67
2019-01-26T10:53:13.605Z,9.13
2019-01-26T10:55:42.879Z,10.57
2019-01-26T10:58:12.169Z,10.00
2019-01-26T11:00:41.436Z,9.40
2019-01-26T11:03:11.155Z,11.47
2019-01-26T11:05:40.434Z,11.50
2019-01-26T11:08:09.767Z,11.10
2019-01-26T11:10:39.033Z,10.63
2019-01-26T11:13:08.263Z,9.20
2019-01-26T11:15:37.503Z,9.77
2019-01-26T11:18:06.805Z,9.07
2019-01-26T11:20:36.061Z,8.07
2019-01-26T11:23:05.346Z,8.33
2019-01-26T11:25:34.590Z,8.00
2019-01-26T11:28:03.858Z,7.33
2019-01-26T11:30:34.759Z,7.60
2019-01-26T11:33:04.032Z,6.43
2019-01-26T11:35:33.278Z,6.23
2019-01-26T11:38:02.554Z,6.33
2019-01-26T11:40:31.970Z,5.83
2019-01-26T11:43:02.865Z,5.73
2019-01-26T11:45:39.426Z,6.23
2019-01-26T11:48:22.503Z,5.73
2019-01-26T11:50:53.395Z,5.60
2019-01-26T11:53:22.701Z,5.37
2019-01-26T11:55:56.364Z,6.63
2019-01-26T11:58:26.388Z,6.60
2019-01-26T12:01:04.123Z,6.70
2019-01-26T12:03:36.218Z,6.27
2019-01-26T12:06:12.860Z,6.67
2019-01-26T12:08:42.111Z,5.80
2019-01-26T12:11:11.372Z,5.63
2019-01-26T12:13:40.806Z,5.40
2019-01-26T12:16:10.142Z,5.90
2019-01-26T12:18:39.890Z,7.00
2019-01-26T12:21:09.256Z,6.37
2019-01-26T12:23:38.521Z,7.53
2019-01-26T12:26:07.778Z,6.33
2019-01-26T12:28:37.165Z,7.27
2019-01-26T12:31:06.419Z,6.10
2019-01-26T12:33:35.758Z,6.80
2019-01-26T12:36:05.015Z,7.60
2019-01-26T12:38:34.348Z,7.77
2019-01-26T12:41:06.580Z,8.30
2019-01-26T12:43:35.843Z,8.87
2019-01-26T12:46:05.094Z,8.07
2019-01-26T12:48:34.375Z,7.50
2019-01-26T12:51:03.613Z,7.63
2019-01-26T12:53:32.878Z,7.73
2019-01-26T12:56:02.134Z,9.20
2019-01-26T12:58:31.404Z,7.53
2019-01-26T13:01:00.713Z,7.03
2019-01-26T13:03:29.989Z,8.03
2019-01-26T13:05:59.242Z,8.70
2019-01-26T13:08:28.515Z,8.27
2019-01-26T13:11:03.962Z,7.30
2019-01-26T13:13:33.172Z,8.60
2019-01-26T13:16:03.502Z,8.47
2019-01-26T13:18:32.779Z,8.20
2019-01-26T13:21:02.031Z,8.73
2019-01-26T13:23:31.298Z,7.97
2019-01-26T13:26:00.542Z,9.20
2019-01-26T13:28:29.958Z,9.53
2019-01-26T13:30:59.197Z,9.30
2019-01-26T13:33:28.462Z,8.30
2019-01-26T13:35:57.707Z,10.40
2019-01-26T13:38:26.977Z,10.57
2019-01-26T13:40:56.230Z,10.60
2019-01-26T13:43:25.499Z,9.57
2019-01-26T13:45:54.743Z,9.73
2019-01-26T13:48:24.038Z,10.60
2019-01-26T13:50:53.299Z,10.33
2019-01-26T13:53:22.570Z,11.30
2019-01-26T13:55:51.824Z,10.23
2019-01-26T13:58:21.090Z,10.30
2019-01-26T14:00:50.271Z,9.37
2019-01-26T14:03:19.537Z,8.83
2019-01-26T14:05:48.786Z,8.97
2019-01-26T14:08:18.054Z,8.10
2019-01-26T14:10:47.297Z,8.93
2019-01-26T14:13:16.561Z,8.53
2019-01-26T14:15:45.730Z,8.43
2019-01-26T14:18:15.014Z,9.57
2019-01-26T14:20:44.262Z,8.47
2019-01-26T14:23:13.767Z,7.60
2019-01-26T14:25:43.074Z,9.63
2019-01-26T14:28:12.336Z,9.20
2019-01-26T14:30:45.247Z,9.60
2019-01-26T14:33:14.502Z,8.77
2019-01-26T14:35:43.787Z,9.20
2019-01-26T14:38:13.697Z,9.77
2019-01-26T14:40:42.986Z,9.67
2019-01-26T14:43:12.174Z,8.10
2019-01-26T14:45:41.373Z,10.13
2019-01-26T14:48:10.622Z,8.17
2019-01-26T14:50:40.965Z,10.93
2019-01-26T14:53:10.146Z,10.20
2019-01-26T14:55:39.415Z,11.87
2019-01-26T14:58:08.668Z,12.90
2019-01-26T15:00:38.881Z,13.13
2019-01-26T15:03:08.125Z,14.63
2019-01-26T15:05:37.401Z,15.37
2019-01-26T15:08:06.645Z,16.43
2019-01-26T15:10:36.118Z,17.13
2019-01-26T15:13:05.374Z,16.90
2019-01-26T15:15:34.655Z,18.43
2019-01-26T15:18:03.900Z,19.87
2019-01-26T15:20:52.660Z,20.53
2019-01-26T15:23:21.849Z,19.97
2019-01-26T15:25:51.049Z,19.83
2019-01-26T15:28:20.297Z,19.60
2019-01-26T15:30:49.585Z,18.40
2019-01-26T15:33:18.847Z,15.97
2019-01-26T15:35:48.123Z,17.50
2019-01-26T15:38:17.380Z,17.53
2019-01-26T15:40:46.653Z,15.70
2019-01-26T15:43:15.906Z,17.13
2019-01-26T15:45:45.111Z,17.27
2019-01-26T15:48:14.368Z,18.53
2019-01-26T15:50:43.645Z,17.30
2019-01-26T15:53:12.823Z,17.00
2019-01-26T15:55:42.099Z,18.27
2019-01-26T15:58:11.416Z,17.77
2019-01-26T16:00:43.127Z,19.90
2019-01-26T16:03:12.389Z,18.77
2019-01-26T16:05:41.669Z,21.87
2019-01-26T16:08:10.908Z,21.67
2019-01-26T16:10:40.210Z,21.50
2019-01-26T16:13:09.486Z,23.70
2019-01-26T16:15:42.704Z,23.37
2019-01-26T16:18:12.343Z,22.97
2019-01-26T16:20:45.670Z,23.53
2019-01-26T16:23:15.038Z,26.00
2019-01-26T16:25:44.348Z,27.63
2019-01-26T16:28:13.940Z,27.87
2019-01-26T16:30:43.267Z,29.67
2019-01-26T16:33:12.741Z,29.77
2019-01-26T16:35:42.962Z,28.23
2019-01-26T16:38:12.532Z,30.30
2019-01-26T16:40:42.268Z,29.30
2019-01-26T16:43:11.778Z,32.17
2019-01-26T16:45:41.358Z,34.30
2019-01-26T16:48:11.162Z,32.57
2019-01-26T16:50:40.651Z,31.80
2019-01-26T16:53:09.973Z,32.83
2019-01-26T16:55:39.373Z,33.83
2019-01-26T16:58:10.507Z,36.67
2019-01-26T17:00:42.339Z,33.33
2019-01-26T17:03:11.931Z,34.70
2019-01-26T17:05:41.292Z,34.67
2019-01-26T17:08:10.860Z,35.77
2019-01-26T17:10:40.323Z,32.53
2019-01-26T17:13:09.941Z,31.13
2019-01-26T17:15:39.241Z,28.80
2019-01-26T17:18:13.711Z,30.03
2019-01-26T17:20:41.810Z,30.17
2019-01-26T17:23:12.731Z,28.07
2019-01-26T17:25:43.458Z,31.20
2019-01-26T17:28:12.918Z,28.17
2019-01-26T17:30:45.205Z,28.90
2019-01-26T17:33:18.198Z,30.03
2019-01-26T17:35:47.173Z,29.10
2019-01-26T17:38:16.988Z,29.50
2019-01-26T17:40:46.541Z,30.93
2019-01-26T17:43:16.043Z,31.47
2019-01-26T17:45:45.359Z,29.20
2019-01-26T17:48:14.708Z,30.47
2019-01-26T17:50:44.183Z,29.20
2019-01-26T17:53:13.651Z,31.83
2019-01-26T17:55:42.911Z,29.90
2019-01-26T17:58:12.266Z,28.80
2019-01-26T18:00:43.237Z,29.03
2019-01-26T18:03:12.614Z,30.07
2019-01-26T18:05:41.935Z,29.70
2019-01-26T18:08:11.413Z,28.30
2019-01-26T18:10:40.944Z,28.93
2019-01-26T18:13:11.373Z,28.30
2019-01-26T18:15:40.751Z,26.27
2019-01-26T18:18:10.250Z,27.40
2019-01-26T18:20:39.818Z,26.37
2019-01-26T18:23:09.509Z,27.63
2019-01-26T18:25:40.341Z,25.43
2019-01-26T18:28:09.647Z,26.43
2019-01-26T18:30:40.214Z,24.47
2019-01-26T18:33:09.614Z,24.20
2019-01-26T18:35:38.930Z,25.50
2019-01-26T18:38:08.269Z,23.07
2019-01-26T18:40:37.513Z,23.87
2019-01-26T18:43:06.706Z,24.23
2019-01-26T18:45:35.949Z,25.57
2019-01-26T18:48:05.222Z,24.90
2019-01-26T18:50:40.345Z,24.27
2019-01-26T18:53:10.609Z,21.37
2019-01-26T18:55:39.855Z,25.53
2019-01-26T18:58:09.129Z,25.17
2019-01-26T19:00:41.255Z,25.30
2019-01-26T19:03:23.494Z,22.60
2019-01-26T19:05:55.059Z,23.83
2019-01-26T19:08:24.342Z,20.43
2019-01-26T19:10:53.590Z,21.47
2019-01-26T19:13:23.951Z,21.00
2019-01-26T19:15:53.199Z,20.80
2019-01-26T19:18:22.465Z,21.20
2019-01-26T19:20:51.733Z,20.30
2019-01-26T19:23:22.081Z,20.53
2019-01-26T19:25:51.461Z,20.80
2019-01-26T19:28:20.776Z,20.07
2019-01-26T19:30:50.014Z,19.40
2019-01-26T19:33:19.492Z,20.13
2019-01-26T19:35:48.734Z,19.20
2019-01-26T19:38:18.089Z,18.83
2019-01-26T19:40:47.329Z,20.37
2019-01-26T19:43:16.603Z,19.43
2019-01-26T19:45:45.855Z,20.90
2019-01-26T19:48:15.189Z,18.93
2019-01-26T19:50:44.386Z,20.40
2019-01-26T19:53:13.714Z,21.07
2019-01-26T19:55:42.916Z,21.27
2019-01-26T19:58:12.230Z,21.23
2019-01-26T20:00:41.503Z,20.73
2019-01-26T20:03:10.822Z,19.20
2019-01-26T20:05:40.098Z,20.30
2019-01-26T20:08:09.423Z,20.23
2019-01-26T20:10:38.768Z,17.53
2019-01-26T20:13:08.018Z,19.03
2019-01-26T20:15:37.224Z,17.60
2019-01-26T20:18:06.480Z,16.80
2019-01-26T20:20:39.269Z,17.10
2019-01-26T20:23:08.524Z,14.67
2019-01-26T20:25:37.790Z,15.40
2019-01-26T20:28:06.979Z,16.17
2019-01-26T20:30:36.311Z,14.77
2019-01-26T20:33:05.558Z,13.80
2019-01-26T20:35:34.758Z,14.70
2019-01-26T20:38:04.070Z,14.73
2019-01-26T20:40:33.352Z,15.07
2019-01-26T20:43:03.681Z,16.20
2019-01-26T20:45:32.953Z,16.47
2019-01-26T20:48:02.273Z,16.03
2019-01-26T20:50:31.554Z,13.43
2019-01-26T20:53:00.799Z,14.90
2019-01-26T20:55:30.001Z,13.87
2019-01-26T20:58:00.514Z,12.87
2019-01-26T21:00:31.217Z,12.53
2019-01-26T21:03:00.396Z,12.53
2019-01-26T21:05:29.670Z,11.70
2019-01-26T21:07:58.923Z,11.07
2019-01-26T21:10:29.637Z,11.03
2019-01-26T21:12:59.249Z,11.30
2019-01-26T21:15:28.526Z,11.97
2019-01-26T21:17:57.791Z,10.43
2019-01-26T21:20:27.206Z,11.70
2019-01-26T21:22:56.522Z,11.07
2019-01-26T21:25:25.790Z,10.87
2019-01-26T21:27:55.107Z,11.20
2019-01-26T21:30:26.118Z,10.57
2019-01-26T21:32:55.707Z,11.20
2019-01-26T21:35:25.106Z,9.87
2019-01-26T21:37:54.354Z,11.20
2019-01-26T21:40:25.961Z,10.57
2019-01-26T21:42:55.139Z,10.87
2019-01-26T21:45:24.416Z,11.40
2019-01-26T21:47:53.664Z,10.97
2019-01-26T21:50:25.728Z,11.53
2019-01-26T21:52:54.982Z,12.20
2019-01-26T21:55:24.249Z,10.67
2019-01-26T21:57:53.501Z,11.67
2019-01-26T22:00:31.006Z,10.60
2019-01-26T22:03:00.522Z,11.17
2019-01-26T22:05:29.796Z,10.60
2019-01-26T22:07:59.046Z,10.63
2019-01-26T22:10:28.683Z,11.07
2019-01-26T22:12:57.950Z,11.93
2019-01-26T22:15:27.194Z,9.53
2019-01-26T22:17:56.466Z,10.50
2019-01-26T22:20:27.464Z,11.27
2019-01-26T22:22:57.370Z,10.97
2019-01-26T22:25:26.621Z,10.40
2019-01-26T22:27:56.336Z,9.83
2019-01-26T22:30:31.215Z,12.87
2019-01-26T22:33:00.495Z,11.47
2019-01-26T22:35:29.743Z,11.10
2019-01-26T22:37:59.027Z,11.07
2019-01-26T22:40:35.942Z,11.17
2019-01-26T22:43:05.137Z,10.23
2019-01-26T22:45:34.395Z,11.40
2019-01-26T22:48:03.671Z,10.00
2019-01-26T22:50:32.913Z,8.13
2019-01-26T22:53:02.121Z,8.83
2019-01-26T22:55:31.367Z,7.70
2019-01-26T22:58:00.629Z,7.93
2019-01-26T23:00:46.164Z,7.77
2019-01-26T23:03:17.043Z,8.17
2019-01-26T23:05:55.484Z,5.80
2019-01-26T23:08:28.070Z,6.50
2019-01-26T23:11:03.413Z,6.57
2019-01-26T23:13:33.487Z,6.37
2019-01-26T23:16:22.663Z,5.33
2019-01-26T23:18:58.204Z,4.70
2019-01-26T23:21:39.471Z,4.30
2019-01-26T23:24:35.513Z,4.07
2019-01-26T23:27:24.535Z,4.27
2019-01-26T23:30:17.466Z,4.80
2019-01-26T23:32:46.730Z,4.30
2019-01-26T23:35:15.973Z,3.73
2019-01-26T23:37:45.240Z,4.33
2019-01-26T23:40:14.481Z,4.07
2019-01-26T23:42:43.678Z,3.73
2019-01-26T23:45:12.918Z,3.80
2019-01-26T23:47:42.185Z,3.20
2019-01-26T23:50:11.352Z,3.30
2019-01-26T23:52:40.595Z,3.50
2019-01-26T23:55:10.427Z,3.57
2019-01-26T23:57:39.664Z,2.93
